Time;durP1;ratioP1;P1;durP2;ratioP2;P2;SDS_P1;SDS_P2;PMS_P1;PMS_P2;Temp;Humidity;BMP_temperature;BMP_pressure;BME280_temperature;BME280_humidity;BME280_pressure;Samples;Min_cycle;Max_cycle;Signal;HPM_P1;HPM_P2
2023/05/23 00:01:20;;;;;;;30.02;11.27;;;;;;;12.70;99.97;102078.75;4993916;28;20042;-83
2023/05/23 00:03:46;;;;;;;29.48;11.05;;;;;;;12.73;99.70;102081.31;4983004;28;20063;-83
2023/05/23 00:06:11;;;;;;;27.48;10.90;;;;;;;12.80;99.91;102081.06;4983901;28;20104;-83
2023/05/23 00:08:36;;;;;;;34.72;11.38;;;;;;;12.83;99.61;102082.75;5000853;28;20110;-84
2023/05/23 00:11:02;;;;;;;27.58;11.23;;;;;;;12.76;99.68;102084.72;4936730;28;20046;-83
2023/05/23 00:13:27;;;;;;;28.35;10.63;;;;;;;12.71;99.79;102077.88;4983678;28;20145;-83
2023/05/23 00:15:53;;;;;;;23.55;9.43;;;;;;;12.73;99.96;102091.81;4999764;28;20034;-83
2023/05/23 00:18:18;;;;;;;21.95;8.82;;;;;;;12.72;100.00;102083.09;4983142;28;20049;-84
2023/05/23 00:20:44;;;;;;;19.33;7.70;;;;;;;12.74;99.61;102093.56;4987270;28;20053;-84
2023/05/23 00:23:12;;;;;;;18.90;7.70;;;;;;;12.68;99.79;102084.09;4983785;28;20047;-83
2023/05/23 00:25:39;;;;;;;16.60;7.28;;;;;;;12.67;99.69;102088.47;4986002;28;20038;-83
2023/05/23 00:28:05;;;;;;;10.10;6.60;;;;;;;12.70;99.73;102084.91;4964016;28;20033;-83
2023/05/23 00:30:32;;;;;;;17.25;7.07;;;;;;;12.72;99.70;102083.09;4993805;28;20066;-83
2023/05/23 00:32:59;;;;;;;13.85;6.78;;;;;;;12.77;99.75;102078.56;4962833;28;20045;-83
2023/05/23 00:35:25;;;;;;;12.38;6.57;;;;;;;12.75;100.00;102083.00;4978168;28;20049;-84
2023/05/23 00:37:50;;;;;;;7.95;5.68;;;;;;;12.84;100.00;102087.09;4999727;28;20034;-83
2023/05/23 00:40:20;;;;;;;9.32;6.45;;;;;;;12.85;100.00;102094.94;4983126;28;20129;-84
2023/05/23 00:42:46;;;;;;;12.30;6.50;;;;;;;12.88;99.96;102094.00;4999731;28;20075;-83
2023/05/23 00:45:12;;;;;;;15.82;6.72;;;;;;;12.88;100.00;102101.91;5000409;28;20057;-83
2023/05/23 00:47:39;;;;;;;14.75;7.43;;;;;;;12.86;100.00;102101.06;5000001;28;20381;-84
2023/05/23 00:50:08;;;;;;;18.60;6.95;;;;;;;12.89;100.00;102106.22;5000445;28;20065;-84
2023/05/23 00:52:34;;;;;;;21.88;7.93;;;;;;;12.89;100.00;102108.00;4966127;28;20037;-83
2023/05/23 00:55:00;;;;;;;23.55;8.50;;;;;;;12.87;100.00;102108.91;4982624;28;20125;-84
2023/05/23 00:57:26;;;;;;;24.98;8.35;;;;;;;12.91;100.00;102096.53;5000265;28;20030;-83
2023/05/23 00:59:52;;;;;;;19.00;7.38;;;;;;;12.89;100.00;102097.50;4967479;28;20129;-84
2023/05/23 01:04:54;;;;;;;22.30;8.65;;;;;;;12.91;100.00;102090.41;4998532;23;20430;-72
2023/05/23 01:07:20;;;;;;;23.65;7.93;;;;;;;12.94;100.00;102093.81;5001234;28;20038;-72
2023/05/23 01:09:46;;;;;;;16.95;7.03;;;;;;;12.97;99.76;102092.84;4999743;28;20038;-72
2023/05/23 01:12:24;;;;;;;20.42;8.43;;;;;;;12.92;99.08;102095.63;4999828;28;20089;-72
2023/05/23 01:15:03;;;;;;;19.33;7.37;;;;;;;12.98;99.02;102091.94;4998578;28;20038;-72
2023/05/23 01:18:01;;;;;;;15.95;7.30;;;;;;;13.04;98.47;102091.75;4999528;28;20266;-72
2023/05/23 01:20:45;;;;;;;22.10;7.33;;;;;;;13.01;98.44;102094.50;4995111;28;20046;-72
2023/05/23 01:23:36;;;;;;;25.02;7.35;;;;;;;13.06;97.94;102090.81;4995753;28;20034;-72
2023/05/23 01:26:25;;;;;;;15.18;6.07;;;;;;;13.05;97.33;102096.09;4979660;28;20332;-72
2023/05/23 01:28:55;;;;;;;18.33;6.88;;;;;;;13.05;97.00;102109.25;4979524;28;20098;-72
2023/05/23 01:31:26;;;;;;;21.33;6.13;;;;;;;13.03;96.29;102103.19;4980243;28;20330;-72
2023/05/23 01:33:53;;;;;;;16.92;6.50;;;;;;;13.01;96.49;102105.88;4979078;28;20041;-72
2023/05/23 01:36:18;;;;;;;23.08;6.90;;;;;;;12.99;96.01;102102.41;4979498;28;20089;-72
2023/05/23 01:38:43;;;;;;;23.92;7.47;;;;;;;12.94;95.50;102103.47;4979677;28;20058;-72
2023/05/23 01:41:09;;;;;;;21.75;6.60;;;;;;;13.01;95.57;102103.22;4979846;28;20034;-72
2023/05/23 01:43:34;;;;;;;27.85;7.38;;;;;;;13.00;94.83;102100.66;4978696;28;20043;-72
2023/05/23 01:46:01;;;;;;;16.70;6.10;;;;;;;13.04;94.67;102104.88;4991369;28;20112;-72
2023/05/23 01:48:27;;;;;;;23.17;6.68;;;;;;;13.00;94.47;102113.78;4997848;28;20087;-72
2023/05/23 01:50:55;;;;;;;22.60;6.60;;;;;;;13.01;94.69;102110.28;4998544;28;20353;-72
2023/05/23 01:53:22;;;;;;;18.63;6.05;;;;;;;13.05;94.45;102098.75;4998458;28;20045;-72
2023/05/23 01:55:48;;;;;;;23.88;6.30;;;;;;;13.05;93.49;102110.09;4996034;28;20085;-72
2023/05/23 01:58:13;;;;;;;19.40;5.97;;;;;;;13.08;93.49;102111.81;4998158;28;20341;-72
2023/05/23 02:00:39;;;;;;;21.65;6.15;;;;;;;13.03;93.60;102111.09;4998943;28;20041;-72
2023/05/23 02:03:05;;;;;;;21.00;6.25;;;;;;;13.02;93.64;102099.72;4998501;28;20345;-72
2023/05/23 02:05:30;;;;;;;20.52;6.20;;;;;;;12.99;93.29;102105.06;4997923;28;20396;-72
2023/05/23 02:07:55;;;;;;;19.02;5.88;;;;;;;13.02;93.24;102112.84;4998429;28;20052;-72
2023/05/23 02:10:21;;;;;;;15.52;6.80;;;;;;;13.01;93.79;102118.16;4998658;28;20046;-72
2023/05/23 02:12:46;;;;;;;16.80;5.80;;;;;;;13.05;93.44;102110.09;4998175;28;20046;-72
2023/05/23 02:15:12;;;;;;;11.60;5.30;;;;;;;13.05;93.14;102112.75;4998212;28;20042;-72
2023/05/23 02:17:37;;;;;;;14.40;5.85;;;;;;;13.07;92.54;102116.19;4998155;28;20344;-72
2023/05/23 02:20:05;;;;;;;20.67;6.55;;;;;;;13.08;92.64;102114.44;4998829;28;20095;-72
2023/05/23 02:22:30;;;;;;;15.45;5.53;;;;;;;13.03;92.54;102125.09;4997523;28;20038;-72
2023/05/23 02:24:56;;;;;;;24.27;6.50;;;;;;;12.96;92.60;102120.91;4997554;28;20105;-72
2023/05/23 02:27:21;;;;;;;26.20;7.18;;;;;;;12.94;92.95;102121.88;4997959;28;20386;-72
2023/05/23 02:29:47;;;;;;;17.45;6.57;;;;;;;12.98;92.57;102131.38;4998622;28;20038;-72
2023/05/23 02:32:12;;;;;;;22.80;6.38;;;;;;;12.93;92.64;102130.66;4998112;28;20049;-72
2023/05/23 02:34:39;;;;;;;22.85;6.28;;;;;;;12.91;92.18;102125.44;4997959;28;20046;-72
2023/05/23 02:37:04;;;;;;;24.52;6.53;;;;;;;12.90;92.35;102136.00;4998867;28;20033;-72
2023/05/23 02:39:30;;;;;;;20.10;6.68;;;;;;;12.91;92.28;102133.34;4998678;28;20038;-72
2023/05/23 02:41:55;;;;;;;14.70;5.75;;;;;;;12.87;92.29;102143.06;4997607;28;20030;-72
2023/05/23 02:44:20;;;;;;;19.98;5.70;;;;;;;12.89;91.64;102137.78;4998448;28;20109;-71
2023/05/23 02:46:46;;;;;;;23.92;6.70;;;;;;;12.91;91.66;102153.50;4997261;28;20069;-71
2023/05/23 02:49:11;;;;;;;25.60;5.95;;;;;;;12.91;91.54;102146.47;4995964;28;20042;-71
2023/05/23 02:51:37;;;;;;;31.83;6.68;;;;;;;12.84;91.49;102161.59;4978379;28;20045;-71
2023/05/23 02:54:02;;;;;;;23.00;6.00;;;;;;;12.82;91.73;102158.16;4978836;28;20047;-71
2023/05/23 02:56:28;;;;;;;26.73;6.13;;;;;;;12.79;91.46;102152.97;4980025;28;20050;-71
2023/05/23 02:58:53;;;;;;;23.95;5.68;;;;;;;12.78;91.63;102156.50;4978337;28;20043;-71
2023/05/23 03:01:19;;;;;;;17.80;5.13;;;;;;;12.80;91.01;102169.59;4996627;28;20065;-71
2023/05/23 03:03:44;;;;;;;15.55;5.15;;;;;;;12.74;91.60;102162.75;4996967;28;20085;-71
2023/05/23 03:06:13;;;;;;;19.48;5.10;;;;;;;12.74;91.46;102161.91;4985354;28;20058;-71
2023/05/23 03:08:40;;;;;;;15.48;4.75;;;;;;;12.67;91.45;102161.19;4979306;28;20042;-71
2023/05/23 03:11:05;;;;;;;17.55;4.05;;;;;;;12.66;91.30;102167.34;4978795;28;20035;-71
2023/05/23 03:13:31;;;;;;;19.80;5.18;;;;;;;12.61;91.31;102161.38;4978422;28;20058;-71
2023/05/23 03:15:56;;;;;;;14.20;4.60;;;;;;;12.63;91.29;102165.69;4981337;28;20053;-71
2023/05/23 03:18:21;;;;;;;13.73;4.13;;;;;;;12.57;91.66;102157.09;4997611;28;20061;-71
2023/05/23 03:20:47;;;;;;;17.20;4.93;;;;;;;12.60;92.16;102157.03;4980119;28;20051;-71
2023/05/23 03:23:12;;;;;;;20.92;5.00;;;;;;;12.62;92.15;102157.84;4978256;28;20042;-71
2023/05/23 03:25:38;;;;;;;21.52;4.75;;;;;;;12.63;91.96;102160.44;4977910;28;20046;-71
2023/05/23 03:28:03;;;;;;;19.92;5.43;;;;;;;12.61;91.06;102162.25;4978712;28;20229;-71
2023/05/23 03:30:28;;;;;;;16.67;4.80;;;;;;;12.59;91.22;102165.84;4978210;28;20093;-71
2023/05/23 03:32:54;;;;;;;17.67;4.25;;;;;;;12.61;90.46;102166.66;4977880;28;20054;-71
2023/05/23 03:35:20;;;;;;;15.43;4.15;;;;;;;12.52;89.59;102162.50;4978345;28;20045;-71
2023/05/23 03:37:45;;;;;;;13.90;4.60;;;;;;;12.46;89.57;102165.28;4978797;28;20034;-71
2023/05/23 03:40:11;;;;;;;22.40;4.80;;;;;;;12.37;89.31;102169.03;4983057;28;20066;-71
2023/05/23 03:42:38;;;;;;;16.75;3.92;;;;;;;12.37;89.18;102174.28;4997382;28;20038;-71
2023/05/23 03:45:04;;;;;;;15.50;4.47;;;;;;;12.38;88.75;102178.63;4997525;28;20046;-71
2023/05/23 03:47:29;;;;;;;13.38;3.78;;;;;;;12.39;88.72;102179.50;4997085;28;20053;-71
2023/05/23 03:49:55;;;;;;;14.25;3.90;;;;;;;12.34;88.24;102190.13;4997140;28;20046;-71
2023/05/23 03:52:20;;;;;;;14.05;3.95;;;;;;;12.37;88.19;102186.53;4997553;28;20442;-71
2023/05/23 03:54:46;;;;;;;10.60;3.85;;;;;;;12.30;87.95;102193.75;4979833;28;20037;-71
2023/05/23 03:57:11;;;;;;;8.57;3.20;;;;;;;12.28;88.34;102185.91;4997260;28;20057;-71
2023/05/23 03:59:36;;;;;;;10.45;4.07;;;;;;;12.22;88.87;102186.03;4996473;28;20121;-71
2023/05/23 04:02:02;;;;;;;16.10;4.13;;;;;;;12.19;89.22;102196.66;4996828;28;20558;-71
2023/05/23 04:04:28;;;;;;;10.32;3.80;;;;;;;12.19;89.54;102196.66;4996507;28;20046;-71
2023/05/23 04:06:54;;;;;;;12.82;4.57;;;;;;;12.16;88.71;102211.63;4997211;28;20356;-71
2023/05/23 04:09:20;;;;;;;13.98;4.60;;;;;;;12.17;88.63;102210.72;4996916;28;20117;-71
2023/05/23 04:11:46;;;;;;;11.05;3.80;;;;;;;12.19;88.03;102215.03;4997242;28;20221;-71
2023/05/23 04:14:12;;;;;;;14.18;3.70;;;;;;;12.24;87.08;102214.91;4988829;28;20078;-71
2023/05/23 04:16:40;;;;;;;13.70;4.22;;;;;;;12.21;86.08;102220.25;4992859;28;20057;-71
2023/05/23 04:19:06;;;;;;;10.27;3.80;;;;;;;12.15;85.37;102223.03;4986052;28;20086;-71
2023/05/23 04:21:31;;;;;;;15.07;4.43;;;;;;;12.07;85.26;102215.34;4981318;28;20333;-72
2023/05/23 04:23:57;;;;;;;16.52;4.70;;;;;;;12.06;85.20;102210.97;4987071;28;20050;-72
2023/05/23 04:26:22;;;;;;;10.45;3.80;;;;;;;12.09;85.38;102213.53;5000638;28;20045;-71
2023/05/23 04:28:48;;;;;;;15.85;4.57;;;;;;;12.12;85.24;102220.50;5000349;28;20053;-71
2023/05/23 04:31:14;;;;;;;13.32;4.88;;;;;;;12.13;85.78;102222.19;5001528;28;20246;-71
2023/05/23 04:33:40;;;;;;;18.98;5.00;;;;;;;12.15;86.00;102220.38;4997567;28;20042;-71
2023/05/23 04:36:08;;;;;;;22.20;6.28;;;;;;;12.13;85.86;102227.44;4992391;28;20041;-71
2023/05/23 04:38:34;;;;;;;16.20;5.97;;;;;;;12.03;85.81;102230.31;4987305;28;20527;-71
2023/05/23 04:40:59;;;;;;;11.88;5.70;;;;;;;12.09;85.82;102235.41;4981313;28;20041;-71
2023/05/23 04:43:28;;;;;;;10.25;4.97;;;;;;;12.06;84.96;102229.34;4980861;28;20050;-71
2023/05/23 04:45:53;;;;;;;13.70;5.53;;;;;;;12.09;84.83;102232.78;4990904;28;20408;-71
2023/05/23 04:48:20;;;;;;;20.40;6.35;;;;;;;12.07;84.99;102242.44;4976871;28;20333;-71
2023/05/23 04:50:46;;;;;;;18.48;5.70;;;;;;;12.07;84.89;102252.97;4980551;28;20113;-71
2023/05/23 04:53:12;;;;;;;21.70;5.93;;;;;;;12.03;84.27;102239.94;4981156;28;20345;-71
2023/05/23 04:55:37;;;;;;;15.90;5.38;;;;;;;12.00;84.25;102248.75;4985546;28;20022;-71
2023/05/23 04:58:03;;;;;;;22.52;6.55;;;;;;;11.91;84.51;102254.22;5000116;28;20046;-71
2023/05/23 05:00:29;;;;;;;17.02;5.72;;;;;;;11.94;84.25;102248.06;4999850;28;20113;-72
2023/05/23 05:02:55;;;;;;;12.80;5.93;;;;;;;11.96;84.47;102251.50;5000072;28;20214;-72
2023/05/23 05:05:20;;;;;;;13.07;5.50;;;;;;;12.01;84.32;102265.38;4999385;28;20058;-71
2023/05/23 05:07:45;;;;;;;12.93;5.18;;;;;;;12.00;83.71;102264.50;4999243;28;20041;-71
2023/05/23 05:10:15;;;;;;;16.65;5.82;;;;;;;11.93;83.47;102265.53;4999939;28;20089;-71
2023/05/23 05:12:50;;;;;;;18.27;6.05;;;;;;;11.86;83.83;102266.56;4999445;28;20046;-71
2023/05/23 05:15:17;;;;;;;15.35;6.00;;;;;;;11.86;84.10;102274.44;5000096;28;20340;-71
2023/05/23 05:17:43;;;;;;;16.80;5.85;;;;;;;11.76;82.13;102263.28;4998807;28;20253;-71
2023/05/23 05:20:09;;;;;;;12.85;5.82;;;;;;;11.85;82.24;102273.56;4999296;28;20338;-71
2023/05/23 05:22:36;;;;;;;17.33;6.28;;;;;;;11.82;83.43;102267.53;4996317;28;20416;-71
2023/05/23 05:25:02;;;;;;;15.68;5.97;;;;;;;11.86;83.54;102280.56;4983033;28;20030;-71
2023/05/23 05:27:28;;;;;;;18.73;6.20;;;;;;;11.79;83.19;102273.72;4979685;28;20050;-71
2023/05/23 05:29:57;;;;;;;16.63;5.78;;;;;;;11.80;83.34;102295.59;4979466;28;20052;-71
2023/05/23 05:32:22;;;;;;;17.90;5.72;;;;;;;11.73;82.32;102286.97;4975795;28;20062;-71
2023/05/23 05:34:48;;;;;;;13.27;5.47;;;;;;;11.72;82.61;102278.25;4996789;28;20053;-71
2023/05/23 05:37:13;;;;;;;15.88;5.35;;;;;;;11.70;82.58;102287.91;4994254;28;20046;-71
2023/05/23 05:39:39;;;;;;;22.48;5.80;;;;;;;11.71;82.92;102289.66;4997906;28;20137;-71
2023/05/23 05:42:04;;;;;;;16.63;5.80;;;;;;;11.73;83.11;102292.22;4998110;28;20057;-71
2023/05/23 05:44:30;;;;;;;12.93;5.10;;;;;;;11.78;83.59;102289.50;4998510;28;20113;-71
2023/05/23 05:46:55;;;;;;;22.67;5.72;;;;;;;11.72;83.86;102291.38;4996807;28;20393;-71
2023/05/23 05:49:21;;;;;;;12.90;4.85;;;;;;;11.74;84.34;102286.09;4998111;28;20054;-71
2023/05/23 05:51:46;;;;;;;20.02;5.55;;;;;;;11.76;84.12;102289.53;4994938;28;20057;-71
2023/05/23 05:54:12;;;;;;;18.00;5.38;;;;;;;11.84;84.18;102291.97;4996441;28;20038;-71
2023/05/23 05:56:37;;;;;;;11.45;4.38;;;;;;;11.84;84.86;102294.59;4993674;28;20042;-71
2023/05/23 05:59:03;;;;;;;14.98;5.15;;;;;;;11.83;84.65;102299.00;4996917;28;20038;-71
2023/05/23 06:01:29;;;;;;;13.45;4.55;;;;;;;11.84;85.17;102294.59;4994478;28;20046;-71
2023/05/23 06:03:55;;;;;;;20.08;5.45;;;;;;;11.83;85.91;102291.13;4997901;28;20088;-71
2023/05/23 06:06:20;;;;;;;10.50;4.80;;;;;;;11.84;86.22;102297.22;4997690;28;20034;-71
2023/05/23 06:08:46;;;;;;;11.40;4.53;;;;;;;11.88;85.95;102294.50;4990210;28;20049;-71
2023/05/23 06:11:11;;;;;;;10.02;4.78;;;;;;;11.89;86.41;102303.25;4991259;28;20052;-71
2023/05/23 06:13:37;;;;;;;11.98;4.32;;;;;;;11.84;87.03;102311.25;4987721;28;20026;-71
2023/05/23 06:16:02;;;;;;;8.68;3.70;;;;;;;11.76;87.55;102310.53;4996960;28;20042;-71
2023/05/23 06:18:27;;;;;;;15.13;4.43;;;;;;;11.78;87.92;102311.34;4994864;28;20336;-71
2023/05/23 06:20:53;;;;;;;12.27;3.42;;;;;;;11.78;88.26;102311.34;4983509;28;20041;-71
2023/05/23 06:23:18;;;;;;;9.48;3.17;;;;;;;11.80;88.30;102313.97;4987561;28;20233;-71
2023/05/23 06:25:44;;;;;;;10.88;3.47;;;;;;;11.79;87.88;102326.22;4993820;28;20047;-71
2023/05/23 06:28:09;;;;;;;9.40;2.90;;;;;;;11.65;88.08;102323.88;4981466;28;20054;-71
2023/05/23 06:30:36;;;;;;;11.60;2.92;;;;;;;11.65;88.80;102325.66;4996675;28;20069;-71
2023/05/23 06:33:02;;;;;;;10.88;2.45;;;;;;;11.66;88.75;102324.75;4998121;28;20065;-71
2023/05/23 06:35:27;;;;;;;6.85;2.50;;;;;;;11.68;88.91;102315.97;4990189;28;20101;-72
2023/05/23 06:37:53;;;;;;;7.57;2.40;;;;;;;11.74;88.91;102319.34;4997717;28;20276;-71
2023/05/23 06:40:18;;;;;;;8.57;2.63;;;;;;;11.69;87.99;102324.69;4984789;28;20038;-71
2023/05/23 06:42:43;;;;;;;7.15;2.03;;;;;;;11.67;87.36;102329.97;4985842;28;20033;-71
2023/05/23 06:45:09;;;;;;;3.63;1.55;;;;;;;11.61;87.71;102329.25;4992792;28;20046;-71
2023/05/23 06:47:35;;;;;;;5.50;1.67;;;;;;;11.65;87.84;102328.28;4995126;28;20034;-71
2023/05/23 06:50:01;;;;;;;12.70;2.35;;;;;;;11.70;86.93;102324.66;4996734;28;20047;-71
2023/05/23 06:52:26;;;;;;;10.25;2.15;;;;;;;11.67;85.09;102336.97;4997401;28;20042;-71
2023/05/23 06:54:52;;;;;;;7.03;1.95;;;;;;;11.61;85.23;102337.97;4997621;28;20432;-71
2023/05/23 06:57:17;;;;;;;7.47;1.80;;;;;;;11.55;84.14;102335.50;4995317;28;20367;-71
2023/05/23 06:59:43;;;;;;;5.60;1.90;;;;;;;11.65;84.80;102338.78;4997588;28;20034;-71
2023/05/23 07:02:08;;;;;;;10.90;2.72;;;;;;;11.71;84.85;102338.63;4995718;28;20273;-71
2023/05/23 07:04:33;;;;;;;10.05;2.75;;;;;;;11.78;84.60;102332.34;4997296;28;20074;-71
2023/05/23 07:06:59;;;;;;;12.00;2.53;;;;;;;11.81;83.61;102334.94;4998126;28;20030;-71
2023/05/23 07:09:24;;;;;;;15.88;3.30;;;;;;;11.88;82.37;102338.28;4996290;28;20042;-71
2023/05/23 07:11:50;;;;;;;8.38;2.30;;;;;;;11.95;80.53;102345.16;4988743;28;20034;-71
2023/05/23 07:14:15;;;;;;;13.90;3.53;;;;;;;11.95;78.48;102341.66;4993160;28;20037;-71
2023/05/23 07:16:40;;;;;;;23.52;3.95;;;;;;;11.87;78.06;102344.41;4996082;28;20046;-71
2023/05/23 07:19:06;;;;;;;13.10;2.50;;;;;;;11.87;77.45;102349.69;4995013;28;20035;-71
2023/05/23 07:21:31;;;;;;;13.07;2.97;;;;;;;11.89;77.43;102350.50;4986197;28;20050;-71
2023/05/23 07:23:57;;;;;;;19.17;3.50;;;;;;;11.92;77.38;102350.47;4996970;28;20073;-71
2023/05/23 07:26:22;;;;;;;18.70;3.53;;;;;;;11.90;77.07;102366.25;4992919;28;20387;-71
2023/05/23 07:28:47;;;;;;;11.70;2.85;;;;;;;11.96;76.00;102361.78;4997146;28;20046;-71
2023/05/23 07:31:13;;;;;;;12.60;2.63;;;;;;;12.04;76.50;102362.44;4997690;28;20034;-71
2023/05/23 07:33:38;;;;;;;19.65;3.03;;;;;;;12.02;76.03;102357.22;4982353;28;20042;-71
2023/05/23 07:36:04;;;;;;;14.82;2.65;;;;;;;12.12;76.69;102359.66;4990255;28;20139;-71
2023/05/23 07:38:29;;;;;;;13.63;2.83;;;;;;;12.12;76.35;102357.91;4993601;28;20042;-71
2023/05/23 07:40:55;;;;;;;14.55;2.33;;;;;;;12.14;75.32;102363.13;4959996;28;20065;-71
2023/05/23 07:43:20;;;;;;;17.42;3.33;;;;;;;12.24;76.42;102362.00;4993686;28;20035;-71
2023/05/23 07:45:45;;;;;;;11.10;3.22;;;;;;;12.38;76.50;102356.44;4991002;28;20093;-71
2023/05/23 07:48:11;;;;;;;15.40;2.40;;;;;;;12.46;75.23;102365.84;4994315;28;20050;-71
2023/05/23 07:50:39;;;;;;;18.83;2.92;;;;;;;12.57;75.86;102365.59;4995506;28;20719;-71
2023/05/23 07:53:05;;;;;;;19.80;3.03;;;;;;;12.57;75.25;102373.47;4998160;28;20030;-71
2023/05/23 07:55:30;;;;;;;15.60;2.50;;;;;;;12.56;76.09;102368.25;4999600;28;20073;-71
2023/05/23 07:57:56;;;;;;;13.00;2.72;;;;;;;12.59;76.39;102365.56;5000055;28;20046;-71
2023/05/23 08:00:21;;;;;;;13.05;2.60;;;;;;;12.53;76.24;102369.19;4999821;28;20037;-71
2023/05/23 08:02:47;;;;;;;14.70;2.78;;;;;;;12.51;76.47;102380.63;4997179;28;20034;-71
2023/05/23 08:05:12;;;;;;;17.00;2.80;;;;;;;12.45;76.25;102379.03;4998854;28;20367;-71
2023/05/23 08:07:38;;;;;;;20.52;3.08;;;;;;;12.39;76.15;102382.66;4995156;28;20104;-71
2023/05/23 08:10:03;;;;;;;14.23;2.90;;;;;;;12.35;75.81;102378.38;4998780;28;20050;-71
2023/05/23 08:12:29;;;;;;;15.90;3.00;;;;;;;12.37;74.98;102380.97;4997668;28;20364;-71
2023/05/23 08:14:54;;;;;;;18.33;3.10;;;;;;;12.32;75.69;102381.09;5000217;28;20040;-71
2023/05/23 08:17:20;;;;;;;15.77;3.17;;;;;;;12.36;73.68;102385.34;4999605;28;20042;-71
2023/05/23 08:19:45;;;;;;;14.93;3.05;;;;;;;12.38;73.65;102394.06;4997724;28;20249;-71
2023/05/23 08:22:11;;;;;;;15.20;2.67;;;;;;;12.51;73.29;102393.78;4998922;28;20232;-71
2023/05/23 08:24:36;;;;;;;14.95;3.20;;;;;;;12.55;73.07;102403.31;4999071;28;20088;-71
2023/05/23 08:27:02;;;;;;;12.93;3.08;;;;;;;12.59;73.33;102399.72;4982760;28;20054;-71
2023/05/23 08:29:27;;;;;;;15.60;3.45;;;;;;;12.66;73.17;102396.00;4998584;28;20129;-71
2023/05/23 08:31:52;;;;;;;13.18;3.22;;;;;;;12.72;73.69;102398.50;4998723;28;20093;-71
2023/05/23 08:34:18;;;;;;;16.85;3.22;;;;;;;12.72;74.25;102398.50;4999065;28;20317;-71
2023/05/23 08:36:43;;;;;;;14.23;3.47;;;;;;;12.68;74.05;102394.25;4998386;28;20050;-71
2023/05/23 08:39:09;;;;;;;20.70;3.28;;;;;;;12.66;73.88;102406.53;4996946;28;20042;-71
2023/05/23 08:41:35;;;;;;;14.52;2.67;;;;;;;12.70;72.83;102397.69;4997425;28;20097;-71
2023/05/23 08:44:01;;;;;;;14.38;2.88;;;;;;;12.76;72.21;102407.19;4980977;28;20034;-71
2023/05/23 08:46:26;;;;;;;16.13;3.67;;;;;;;12.81;72.67;102406.16;4996821;28;20068;-71
2023/05/23 08:48:54;;;;;;;15.48;3.35;;;;;;;12.92;72.83;102390.13;4996968;28;20337;-71
2023/05/23 08:51:25;;;;;;;21.77;3.45;;;;;;;13.01;72.86;102403.03;4996000;28;20146;-71
2023/05/23 08:53:52;;;;;;;16.63;3.28;;;;;;;13.03;70.42;102411.75;4978773;28;20279;-71
2023/05/23 08:56:18;;;;;;;10.73;2.80;;;;;;;13.03;70.21;102422.25;4998979;28;20074;-71
2023/05/23 08:58:46;;;;;;;16.55;3.30;;;;;;;13.03;70.15;102403.00;4995303;28;20046;-71
2023/05/23 09:01:12;;;;;;;19.43;3.23;;;;;;;13.07;70.60;102409.91;4991522;28;20042;-71
2023/05/23 09:03:41;;;;;;;15.30;3.15;;;;;;;13.01;70.62;102403.03;4997966;28;20289;-71
2023/05/23 09:06:07;;;;;;;18.52;3.13;;;;;;;13.10;71.33;102406.31;4998662;28;20130;-71
2023/05/23 09:08:33;;;;;;;12.43;2.67;;;;;;;13.20;70.64;102413.06;4998967;28;20057;-71
2023/05/23 09:11:01;;;;;;;24.50;3.80;;;;;;;13.29;70.74;102419.84;4997306;28;20337;-71
2023/05/23 09:13:29;;;;;;;18.50;3.85;;;;;;;13.31;70.26;102421.56;4998301;28;20112;-71
2023/05/23 09:16:01;;;;;;;19.00;2.83;;;;;;;13.34;70.78;102426.75;4998107;28;20081;-71
2023/05/23 09:18:27;;;;;;;19.92;3.55;;;;;;;13.29;68.30;102435.63;4999442;28;20050;-71
2023/05/23 09:20:52;;;;;;;18.80;3.60;;;;;;;13.32;69.10;102423.28;4998139;28;20345;-71
2023/05/23 09:23:19;;;;;;;10.73;3.13;;;;;;;13.35;69.60;102427.59;4997529;28;20377;-71
2023/05/23 09:25:47;;;;;;;12.57;2.92;;;;;;;13.36;69.31;102439.88;4991547;28;20050;-71
2023/05/23 09:28:13;;;;;;;;;;;;;;;13.35;69.24;102430.22;4998262;28;20116;-71
2023/05/23 09:30:38;;;;;;;16.92;3.30;;;;;;;13.37;68.96;102431.94;4998351;28;19921;-71
2023/05/23 09:33:04;;;;;;;10.88;2.80;;;;;;;13.38;69.83;102432.78;4997047;28;20038;-71
2023/05/23 09:35:30;;;;;;;19.55;3.92;;;;;;;13.43;70.34;102438.81;4998632;28;20034;-71
2023/05/23 09:38:00;;;;;;;11.77;3.00;;;;;;;13.47;68.50;102442.22;4998340;28;20045;-71
2023/05/23 09:40:30;;;;;;;16.50;2.90;;;;;;;13.55;69.02;102451.63;4998389;28;20048;-71
2023/05/23 09:43:01;;;;;;;18.15;3.78;;;;;;;13.53;68.06;102445.50;4998051;28;20376;-71
2023/05/23 09:45:30;;;;;;;11.93;3.85;;;;;;;13.57;68.27;102444.56;4995865;28;20049;-71
2023/05/23 09:47:56;;;;;;;14.98;3.47;;;;;;;13.56;69.05;102432.28;4984859;28;20416;-71
2023/05/23 09:50:23;;;;;;;15.73;3.30;;;;;;;13.61;68.62;102440.91;4992589;28;20030;-71
2023/05/23 09:52:49;;;;;;;18.92;2.70;;;;;;;13.69;68.60;102439.84;4998624;28;20435;-71
2023/05/23 09:55:15;;;;;;;15.52;3.40;;;;;;;13.77;67.99;102440.47;4999439;28;20049;-71
2023/05/23 09:57:42;;;;;;;10.75;2.70;;;;;;;13.79;67.40;102446.59;4998113;28;20034;-71
2023/05/23 10:00:10;;;;;;;16.08;3.15;;;;;;;13.80;66.92;102453.56;4996316;28;20076;-71
2023/05/23 10:02:53;;;;;;;16.95;2.67;;;;;;;13.80;67.13;102445.66;4995352;28;20120;-71
2023/05/23 10:06:00;;;;;;;16.20;2.70;;;;;;;13.80;67.34;102451.78;4996728;28;20105;-71
2023/05/23 10:08:43;;;;;;;13.35;2.85;;;;;;;13.72;67.70;102452.94;4959179;28;20309;-71
2023/05/23 10:11:11;;;;;;;14.13;2.80;;;;;;;13.60;67.31;102457.59;4993914;28;20045;-71
2023/05/23 10:13:42;;;;;;;20.52;3.92;;;;;;;13.60;67.25;102456.75;4982369;28;20044;-71
2023/05/23 10:16:22;;;;;;;8.57;2.42;;;;;;;13.61;68.05;102459.34;4998498;28;20061;-71
2023/05/23 10:18:59;;;;;;;11.00;3.05;;;;;;;13.61;66.99;102455.84;4996094;28;20106;-71
2023/05/23 10:21:49;;;;;;;17.90;2.70;;;;;;;13.62;66.80;102458.44;4994428;28;20037;-71
2023/05/23 10:24:15;;;;;;;11.30;3.08;;;;;;;13.57;66.40;102454.19;4991402;28;20037;-71
2023/05/23 10:26:42;;;;;;;13.63;2.75;;;;;;;13.53;64.85;102466.56;4993199;28;20062;-71
2023/05/23 10:29:07;;;;;;;15.43;2.55;;;;;;;13.55;64.38;102464.78;4998117;28;20030;-71
2023/05/23 10:31:35;;;;;;;12.63;2.35;;;;;;;13.50;63.56;102453.53;4997729;28;20241;-71
2023/05/23 10:34:26;;;;;;;14.32;3.08;;;;;;;13.60;62.81;102467.28;4994657;28;20072;-71
2023/05/23 10:37:04;;;;;;;4.82;2.20;;;;;;;13.70;62.73;102465.25;4992290;28;20019;-71
2023/05/23 10:40:08;;;;;;;13.93;2.97;;;;;;;13.85;64.09;102470.09;4994992;28;20117;-71
2023/05/23 10:43:00;;;;;;;15.35;2.80;;;;;;;13.86;64.84;102476.22;4993169;28;20165;-71
2023/05/23 10:45:26;;;;;;;9.88;2.22;;;;;;;13.88;64.65;102464.75;4997590;28;20069;-71
2023/05/23 10:47:52;;;;;;;9.98;2.20;;;;;;;13.90;64.64;102475.22;4997248;28;20210;-71
2023/05/23 10:50:35;;;;;;;10.38;2.50;;;;;;;13.98;64.80;102474.09;4996939;28;20110;-71
2023/05/23 10:53:03;;;;;;;9.88;2.33;;;;;;;13.98;64.89;102473.25;4997423;28;20045;-71
2023/05/23 10:55:33;;;;;;;12.57;2.50;;;;;;;13.91;66.33;102476.97;4997166;28;20375;-72
2023/05/23 10:58:31;;;;;;;10.50;2.80;;;;;;;13.89;66.46;102476.13;4992426;28;20089;-72
2023/05/23 11:01:01;;;;;;;16.10;2.83;;;;;;;13.87;66.01;102473.53;4989182;28;20125;-72
2023/05/23 11:03:48;;;;;;;14.25;2.85;;;;;;;13.83;66.02;102472.78;4991472;28;20049;-72
2023/05/23 11:06:41;;;;;;;8.10;2.33;;;;;;;13.86;67.25;102463.94;4993588;28;20054;-72
2023/05/23 11:09:11;;;;;;;15.05;2.70;;;;;;;13.89;67.24;102468.25;4982459;28;20255;-72
2023/05/23 11:11:58;;;;;;;17.27;3.38;;;;;;;13.89;67.16;102468.25;5001720;28;20033;-72
2023/05/23 11:14:33;;;;;;;13.50;2.25;;;;;;;13.89;66.37;102474.34;5002854;28;20229;-72
2023/05/23 11:17:13;;;;;;;14.00;2.50;;;;;;;14.02;67.17;102473.13;4999362;28;20105;-72
2023/05/23 11:19:54;;;;;;;10.98;2.72;;;;;;;14.09;65.79;102465.03;4994553;28;20053;-72
2023/05/23 11:22:20;;;;;;;13.27;2.42;;;;;;;14.08;65.11;102477.34;4997657;28;20042;-72